createdAt,value
2019-05-09T00:00:04.020Z,40.08
2019-05-09T00:02:43.609Z,31.60
2019-05-09T00:05:16.064Z,15.10
2019-05-09T00:07:48.134Z,21.65
2019-05-09T00:10:36.157Z,35.63
2019-05-09T00:12:55.951Z,20.48
2019-05-09T00:15:27.749Z,16.97
2019-05-09T00:18:03.880Z,19.52
2019-05-09T00:20:56.049Z,58.87
2019-05-09T00:23:28.989Z,32.10
2019-05-09T00:26:04.005Z,19.80
2019-05-09T00:28:37.220Z,20.52
2019-05-09T00:31:13.513Z,17.00
2019-05-09T00:33:49.295Z,15.45
2019-05-09T00:36:23.180Z,20.10
2019-05-09T00:38:55.531Z,33.98
2019-05-09T00:41:28.420Z,30.85
2019-05-09T00:44:03.396Z,17.35
2019-05-09T00:46:39.491Z,16.17
2019-05-09T00:49:14.056Z,22.20
2019-05-09T00:51:48.219Z,42.77
2019-05-09T00:54:20.758Z,21.12
2019-05-09T00:56:54.000Z,33.38
2019-05-09T00:59:25.528Z,30.97
2019-05-09T01:02:03.916Z,19.85
2019-05-09T01:04:37.062Z,38.17
2019-05-09T01:07:09.651Z,16.32
2019-05-09T01:09:44.077Z,25.50
2019-05-09T01:12:16.569Z,14.70
2019-05-09T01:14:50.922Z,17.75
2019-05-09T01:17:24.136Z,20.12
2019-05-09T01:19:55.655Z,16.30
2019-05-09T01:22:27.148Z,14.83
2019-05-09T01:25:01.222Z,19.35
2019-05-09T01:27:33.963Z,14.75
2019-05-09T01:30:07.468Z,19.07
2019-05-09T01:32:49.494Z,18.00
2019-05-09T01:35:23.297Z,18.90
2019-05-09T01:37:57.509Z,15.93
2019-05-09T01:40:33.098Z,15.13
2019-05-09T01:43:04.816Z,16.40
2019-05-09T01:45:37.489Z,23.07
2019-05-09T01:48:13.408Z,16.97
2019-05-09T01:50:46.070Z,19.57
2019-05-09T01:53:24.898Z,15.18
2019-05-09T01:56:00.317Z,19.15
2019-05-09T01:58:35.579Z,25.05
2019-05-09T02:01:13.467Z,18.15
2019-05-09T02:03:45.297Z,18.00
2019-05-09T02:06:18.608Z,17.92
2019-05-09T02:08:51.192Z,16.50
2019-05-09T02:11:38.452Z,16.48
2019-05-09T02:14:01.169Z,21.50
2019-05-09T02:16:53.733Z,15.75
2019-05-09T02:19:33.053Z,16.67
2019-05-09T02:22:04.623Z,19.17
2019-05-09T02:24:38.737Z,18.37
2019-05-09T02:27:13.142Z,24.00
2019-05-09T02:29:44.194Z,18.23
2019-05-09T02:32:16.765Z,17.17
2019-05-09T02:34:50.442Z,20.02
2019-05-09T02:37:24.478Z,14.58
2019-05-09T02:39:59.272Z,18.77
2019-05-09T02:42:33.317Z,18.35
2019-05-09T02:45:08.399Z,16.50
2019-05-09T02:47:42.693Z,16.60
2019-05-09T02:50:19.543Z,18.62
2019-05-09T02:52:51.133Z,16.85
2019-05-09T02:55:28.693Z,16.10
2019-05-09T02:58:03.074Z,18.67
2019-05-09T03:00:52.855Z,17.90
2019-05-09T03:03:28.991Z,19.23
2019-05-09T03:05:59.915Z,17.35
2019-05-09T03:08:31.835Z,22.93
2019-05-09T03:11:04.732Z,17.95
2019-05-09T03:13:39.570Z,16.40
2019-05-09T03:16:14.090Z,20.80
2019-05-09T03:18:49.100Z,20.02
2019-05-09T03:21:40.278Z,19.17
2019-05-09T03:24:14.399Z,18.37
2019-05-09T03:26:53.664Z,18.48
2019-05-09T03:29:34.603Z,22.25
2019-05-09T03:32:19.421Z,22.30
2019-05-09T03:34:49.196Z,16.57
2019-05-09T03:37:23.064Z,18.37
2019-05-09T03:40:00.886Z,18.30
2019-05-09T03:42:43.491Z,20.17
2019-05-09T03:45:14.400Z,20.23
2019-05-09T03:47:54.958Z,19.17
2019-05-09T03:50:28.001Z,16.82
2019-05-09T03:53:00.706Z,17.27
2019-05-09T03:55:38.332Z,15.10
2019-05-09T03:58:15.125Z,17.95
2019-05-09T04:00:47.950Z,18.87
2019-05-09T04:03:20.728Z,19.80
2019-05-09T04:06:02.791Z,21.15
2019-05-09T04:08:34.172Z,17.42
2019-05-09T04:11:08.593Z,16.85
2019-05-09T04:13:43.217Z,20.00
2019-05-09T04:16:17.360Z,21.33
2019-05-09T04:18:48.594Z,17.07
2019-05-09T04:21:21.208Z,24.05
2019-05-09T04:23:54.335Z,18.92
2019-05-09T04:26:29.962Z,17.65
2019-05-09T04:29:04.388Z,20.35
2019-05-09T04:31:38.410Z,20.77
2019-05-09T04:34:10.899Z,17.15
2019-05-09T04:36:48.429Z,18.70
2019-05-09T04:39:23.591Z,20.95
2019-05-09T04:41:54.920Z,22.35
2019-05-09T04:44:31.152Z,21.07
2019-05-09T04:47:04.221Z,17.32
2019-05-09T04:49:40.948Z,15.70
2019-05-09T04:52:12.407Z,22.05
2019-05-09T04:54:48.307Z,18.50
2019-05-09T04:57:18.921Z,20.15
2019-05-09T04:59:50.672Z,19.35
2019-05-09T05:02:23.493Z,20.90
2019-05-09T05:04:58.390Z,18.02
2019-05-09T05:07:29.249Z,20.70
2019-05-09T05:10:05.065Z,18.80
2019-05-09T05:12:38.087Z,20.37
2019-05-09T05:15:12.251Z,18.37
2019-05-09T05:17:47.731Z,17.20
2019-05-09T05:20:24.173Z,18.80
2019-05-09T05:22:59.157Z,18.35
2019-05-09T05:25:31.875Z,17.65
2019-05-09T05:28:08.481Z,18.40
2019-05-09T05:30:42.110Z,19.48
2019-05-09T05:33:32.726Z,17.67
2019-05-09T05:36:08.136Z,18.82
2019-05-09T05:38:42.677Z,19.75
2019-05-09T05:41:19.440Z,18.82
2019-05-09T05:43:51.206Z,18.82
2019-05-09T05:46:33.496Z,22.85
2019-05-09T05:49:08.168Z,21.15
2019-05-09T05:52:00.763Z,19.67
2019-05-09T05:54:33.408Z,19.62
2019-05-09T05:57:05.636Z,19.65
2019-05-09T05:59:40.995Z,18.77
2019-05-09T06:02:17.605Z,21.07
2019-05-09T06:04:48.924Z,21.00
2019-05-09T06:07:23.177Z,19.37
2019-05-09T06:10:08.063Z,20.23
2019-05-09T06:12:39.781Z,19.90
2019-05-09T06:15:12.429Z,22.77
2019-05-09T06:17:49.529Z,20.48
2019-05-09T06:20:24.178Z,18.20
2019-05-09T06:22:59.392Z,16.85
2019-05-09T06:25:32.122Z,21.23
2019-05-09T06:28:07.667Z,21.48
2019-05-09T06:30:41.760Z,21.45
2019-05-09T06:33:13.105Z,21.48
2019-05-09T06:35:47.973Z,19.67
2019-05-09T06:38:21.950Z,22.73
2019-05-09T06:40:54.604Z,19.85
2019-05-09T06:43:29.111Z,18.35
2019-05-09T06:46:20.333Z,19.15
2019-05-09T06:48:54.218Z,18.12
2019-05-09T06:51:27.684Z,23.27
2019-05-09T06:53:59.503Z,21.73
2019-05-09T06:56:33.745Z,23.30
2019-05-09T06:59:07.667Z,20.80
2019-05-09T07:02:00.433Z,21.23
2019-05-09T07:04:41.969Z,19.90
2019-05-09T07:07:19.611Z,19.12
2019-05-09T07:09:59.850Z,17.37
2019-05-09T07:12:31.564Z,19.73
2019-05-09T07:15:03.743Z,16.82
2019-05-09T07:17:38.569Z,18.52
2019-05-09T07:20:09.061Z,19.23
2019-05-09T07:22:48.049Z,21.40
2019-05-09T07:25:24.334Z,23.45
2019-05-09T07:27:58.522Z,23.10
2019-05-09T07:30:49.662Z,19.87
2019-05-09T07:33:40.422Z,21.17
2019-05-09T07:36:15.762Z,20.37
2019-05-09T07:38:50.350Z,23.47
2019-05-09T07:41:24.069Z,21.02
2019-05-09T07:43:58.266Z,19.45
2019-05-09T07:46:32.878Z,21.17
2019-05-09T07:49:08.508Z,20.57
2019-05-09T07:51:42.820Z,18.98
2019-05-09T07:54:24.769Z,19.27
2019-05-09T07:56:52.836Z,19.35
2019-05-09T07:59:27.273Z,23.10
2019-05-09T08:01:58.878Z,26.73
2019-05-09T08:04:38.378Z,17.52
2019-05-09T08:07:12.130Z,18.73
2019-05-09T08:09:58.138Z,21.27
2019-05-09T08:12:31.689Z,23.57
2019-05-09T08:15:13.768Z,19.52
2019-05-09T08:17:38.476Z,19.17
2019-05-09T08:20:13.908Z,21.95
2019-05-09T08:22:57.225Z,23.90
2019-05-09T08:25:20.866Z,19.20
2019-05-09T08:27:53.236Z,20.48
2019-05-09T08:30:32.304Z,19.20
2019-05-09T08:33:00.128Z,19.60
2019-05-09T08:35:51.617Z,19.80
2019-05-09T08:38:20.968Z,22.80
2019-05-09T08:40:55.105Z,19.45
2019-05-09T08:43:28.344Z,20.77
2019-05-09T08:46:01.032Z,18.90
2019-05-09T08:48:37.623Z,25.50
2019-05-09T08:51:10.860Z,20.95
2019-05-09T08:53:48.032Z,26.97
2019-05-09T08:56:17.931Z,19.85
2019-05-09T08:58:50.730Z,27.35
2019-05-09T09:01:35.090Z,17.98
2019-05-09T09:03:57.585Z,21.37
2019-05-09T09:06:33.496Z,16.25
2019-05-09T09:09:08.072Z,18.07
2019-05-09T09:11:40.217Z,28.73
2019-05-09T09:14:14.876Z,22.35
2019-05-09T09:16:48.031Z,18.02
2019-05-09T09:19:20.305Z,16.23
2019-05-09T09:21:52.820Z,46.48
2019-05-09T09:24:28.352Z,42.30
2019-05-09T09:29:38.120Z,19.65
2019-05-09T09:32:13.379Z,17.57
2019-05-09T09:34:51.472Z,15.78
2019-05-09T09:37:23.193Z,12.95
2019-05-09T09:39:58.028Z,15.30
2019-05-09T09:42:30.172Z,21.90
2019-05-09T09:45:04.789Z,16.27
2019-05-09T09:47:39.376Z,17.32
2019-05-09T09:50:11.306Z,14.83
2019-05-09T09:52:58.461Z,18.35
2019-05-09T09:55:31.082Z,17.45
2019-05-09T09:58:03.673Z,13.30
2019-05-09T10:00:39.655Z,11.90
2019-05-09T10:03:12.298Z,16.12
2019-05-09T10:06:07.465Z,16.12
2019-05-09T10:08:39.768Z,13.13
2019-05-09T10:11:14.326Z,13.60
2019-05-09T10:13:48.015Z,10.72
2019-05-09T10:16:39.621Z,8.18
2019-05-09T10:19:13.226Z,8.78
2019-05-09T10:21:48.575Z,10.08
2019-05-09T10:27:10.692Z,7.03
2019-05-09T10:29:44.546Z,5.28
2019-05-09T10:32:18.212Z,3.67
2019-05-09T10:34:52.556Z,7.95
2019-05-09T10:37:24.140Z,6.50
2019-05-09T10:39:58.130Z,4.92
2019-05-09T10:42:37.932Z,4.47
2019-05-09T10:45:15.091Z,4.37
2019-05-09T10:47:48.235Z,5.80
2019-05-09T10:50:20.452Z,4.08
2019-05-09T10:52:53.021Z,7.75
2019-05-09T10:55:25.660Z,6.12
2019-05-09T10:58:01.997Z,9.40
2019-05-09T11:00:30.921Z,7.62
2019-05-09T11:03:03.388Z,4.70
2019-05-09T11:05:37.626Z,6.10
2019-05-09T11:08:10.220Z,8.15
2019-05-09T11:10:42.818Z,7.58
2019-05-09T11:13:18.005Z,7.90
2019-05-09T11:15:50.345Z,7.62
2019-05-09T11:18:24.139Z,10.20
2019-05-09T11:20:57.957Z,8.45
2019-05-09T11:23:29.188Z,8.05
2019-05-09T11:26:00.829Z,7.75
2019-05-09T11:28:33.294Z,6.97
2019-05-09T11:31:05.071Z,7.75
2019-05-09T11:33:38.551Z,7.78
2019-05-09T11:36:11.838Z,9.63
2019-05-09T11:38:44.193Z,9.15
2019-05-09T11:41:19.311Z,9.30
2019-05-09T11:43:50.759Z,12.55
2019-05-09T11:46:23.747Z,10.93
2019-05-09T11:48:57.947Z,11.85
2019-05-09T11:51:31.764Z,10.35
2019-05-09T11:54:08.815Z,10.43
2019-05-09T11:56:39.047Z,9.95
2019-05-09T11:59:13.021Z,11.03
2019-05-09T12:01:48.278Z,12.85
2019-05-09T12:06:54.669Z,9.18
2019-05-09T12:09:28.824Z,9.45
2019-05-09T12:12:02.805Z,5.85
2019-05-09T12:14:38.162Z,6.92
2019-05-09T12:17:10.578Z,5.53
2019-05-09T12:19:42.893Z,8.53
2019-05-09T12:22:18.853Z,4.50
2019-05-09T12:24:54.083Z,6.60
2019-05-09T12:27:28.065Z,4.72
2019-05-09T12:29:59.009Z,5.58
2019-05-09T12:32:31.814Z,6.78
2019-05-09T12:35:04.644Z,6.53
2019-05-09T12:37:38.968Z,7.10
2019-05-09T12:40:11.368Z,7.17
2019-05-09T12:42:46.012Z,4.92
2019-05-09T12:45:20.064Z,5.85
2019-05-09T12:48:06.453Z,11.03
2019-05-09T12:50:26.233Z,6.00
2019-05-09T12:52:58.205Z,6.17
2019-05-09T12:55:30.576Z,5.50
2019-05-09T12:58:05.562Z,9.30
2019-05-09T13:00:38.464Z,8.88
2019-05-09T13:03:12.901Z,7.70
2019-05-09T13:05:47.145Z,6.42
2019-05-09T13:08:18.840Z,7.08
2019-05-09T13:10:53.538Z,8.33
2019-05-09T13:13:30.189Z,7.60
2019-05-09T13:16:11.971Z,5.70
2019-05-09T13:19:02.342Z,6.22
2019-05-09T13:21:33.523Z,8.48
2019-05-09T13:24:08.057Z,7.92
2019-05-09T13:26:38.751Z,7.90
2019-05-09T13:29:11.588Z,9.18
2019-05-09T13:31:43.157Z,5.42
2019-05-09T13:34:18.578Z,7.53
2019-05-09T13:36:51.539Z,7.55
2019-05-09T13:39:27.842Z,6.62
2019-05-09T13:42:00.467Z,9.28
2019-05-09T13:44:40.633Z,7.35
2019-05-09T13:47:12.428Z,6.80
2019-05-09T13:49:45.362Z,7.72
2019-05-09T13:52:18.790Z,11.22
2019-05-09T13:54:54.942Z,8.25
2019-05-09T13:57:27.837Z,9.43
2019-05-09T14:00:00.494Z,6.80
2019-05-09T14:02:34.120Z,8.03
2019-05-09T14:05:11.173Z,6.10
2019-05-09T14:07:48.612Z,6.08
2019-05-09T14:10:20.154Z,8.90
2019-05-09T14:13:05.775Z,6.60
2019-05-09T14:15:31.323Z,8.33
2019-05-09T14:18:08.148Z,8.40
2019-05-09T14:20:38.985Z,8.45
2019-05-09T14:23:14.537Z,6.67
2019-05-09T14:25:51.886Z,6.25
2019-05-09T14:28:24.455Z,6.95
2019-05-09T14:30:59.443Z,6.37
2019-05-09T14:33:31.962Z,6.80
2019-05-09T14:36:08.294Z,8.23
2019-05-09T14:38:42.095Z,7.90
2019-05-09T14:41:14.655Z,8.27
2019-05-09T14:43:49.373Z,7.47
2019-05-09T14:46:21.949Z,5.92
2019-05-09T14:48:58.486Z,9.23
2019-05-09T14:51:34.413Z,7.28
2019-05-09T14:54:08.425Z,6.97
2019-05-09T14:56:42.586Z,8.30
2019-05-09T14:59:15.327Z,6.22
2019-05-09T15:01:49.996Z,10.05
2019-05-09T15:04:23.602Z,9.15
2019-05-09T15:06:59.003Z,6.83
2019-05-09T15:12:03.599Z,11.25
2019-05-09T15:14:38.304Z,7.05
2019-05-09T15:17:11.006Z,7.25
2019-05-09T15:19:59.355Z,9.70
2019-05-09T15:22:22.703Z,9.85
2019-05-09T15:24:55.293Z,9.08
2019-05-09T15:27:31.600Z,10.15
2019-05-09T15:30:04.107Z,9.95
2019-05-09T15:32:37.920Z,7.55
2019-05-09T15:35:09.596Z,8.05
2019-05-09T15:37:47.857Z,10.18
2019-05-09T15:43:29.459Z,9.03
2019-05-09T15:46:22.382Z,7.85
2019-05-09T15:49:01.091Z,8.10
2019-05-09T15:51:32.562Z,10.30
2019-05-09T15:54:08.293Z,8.40
2019-05-09T15:56:43.988Z,9.50
2019-05-09T15:59:17.898Z,7.47
2019-05-09T16:01:49.531Z,12.43
2019-05-09T16:04:24.147Z,9.03
2019-05-09T16:06:57.030Z,8.53
2019-05-09T16:09:30.316Z,9.00
2019-05-09T16:12:07.812Z,10.00
2019-05-09T16:14:40.521Z,10.08
2019-05-09T16:17:13.289Z,8.50
2019-05-09T16:19:48.185Z,11.25
2019-05-09T16:22:20.091Z,10.23
2019-05-09T16:24:52.933Z,11.18
2019-05-09T16:27:26.648Z,9.00
2019-05-09T16:29:59.480Z,11.55
2019-05-09T16:32:31.991Z,11.00
2019-05-09T16:35:04.533Z,12.75
2019-05-09T16:37:56.928Z,12.73
2019-05-09T16:40:16.053Z,10.30
2019-05-09T16:42:50.189Z,9.23
2019-05-09T16:45:24.661Z,10.75
2019-05-09T16:47:59.032Z,13.15
2019-05-09T16:50:33.419Z,10.13
2019-05-09T16:53:08.664Z,11.65
2019-05-09T16:55:42.169Z,11.22
2019-05-09T16:58:13.444Z,11.57
2019-05-09T17:00:51.118Z,12.03
2019-05-09T17:03:22.667Z,12.90
2019-05-09T17:05:58.061Z,13.32
2019-05-09T17:08:30.963Z,15.53
2019-05-09T17:11:07.621Z,13.10
2019-05-09T17:13:41.205Z,13.58
2019-05-09T17:16:15.010Z,12.20
2019-05-09T17:18:48.495Z,14.58
2019-05-09T17:21:40.642Z,12.30
2019-05-09T17:24:16.826Z,11.20
2019-05-09T17:26:51.463Z,12.18
2019-05-09T17:29:23.852Z,16.20
2019-05-09T17:31:58.426Z,13.58
2019-05-09T17:34:29.140Z,13.13
2019-05-09T17:37:02.015Z,11.50
2019-05-09T17:39:38.615Z,13.38
2019-05-09T17:42:11.080Z,13.78
2019-05-09T17:44:43.847Z,15.48
2019-05-09T17:47:17.491Z,15.13
2019-05-09T17:49:50.195Z,13.10
2019-05-09T17:52:21.728Z,12.28
2019-05-09T17:54:54.464Z,13.93
2019-05-09T17:57:27.921Z,12.28
2019-05-09T17:59:59.672Z,14.43
2019-05-09T18:02:32.110Z,15.53
2019-05-09T18:05:07.786Z,14.35
2019-05-09T18:10:11.207Z,14.45
2019-05-09T18:12:43.916Z,15.93
2019-05-09T18:15:15.464Z,20.15
2019-05-09T18:17:47.947Z,16.37
2019-05-09T18:20:22.843Z,12.70
2019-05-09T18:23:08.178Z,17.73
2019-05-09T18:25:39.658Z,15.80
2019-05-09T18:28:17.422Z,16.65
2019-05-09T18:30:50.351Z,12.35
2019-05-09T18:33:43.836Z,15.13
2019-05-09T18:36:18.479Z,13.03
2019-05-09T18:38:58.572Z,13.37
2019-05-09T18:41:29.808Z,14.87
2019-05-09T18:44:10.781Z,13.65
2019-05-09T18:46:43.695Z,15.25
2019-05-09T18:49:21.438Z,15.70
2019-05-09T18:52:03.476Z,13.10
2019-05-09T18:54:27.858Z,16.30
2019-05-09T18:57:08.360Z,14.80
2019-05-09T18:59:50.397Z,13.98
2019-05-09T19:05:18.972Z,20.52
2019-05-09T19:07:58.442Z,14.73
2019-05-09T19:10:39.516Z,16.73
2019-05-09T19:13:12.027Z,16.27
2019-05-09T19:16:13.923Z,17.75
2019-05-09T19:18:51.623Z,17.17
2019-05-09T19:21:27.557Z,17.25
2019-05-09T19:24:01.126Z,18.77
2019-05-09T19:26:40.586Z,17.30
2019-05-09T19:29:14.292Z,19.42
2019-05-09T19:31:49.881Z,18.42
2019-05-09T19:34:29.325Z,16.00
2019-05-09T19:37:09.843Z,20.27
2019-05-09T19:39:43.048Z,21.40
2019-05-09T19:42:22.581Z,16.05
2019-05-09T19:45:01.623Z,20.45
2019-05-09T19:47:45.292Z,18.25
2019-05-09T19:50:19.533Z,20.82
2019-05-09T19:53:00.510Z,18.92
2019-05-09T19:55:33.850Z,18.92
2019-05-09T19:58:12.285Z,19.73
2019-05-09T20:00:45.596Z,23.65
2019-05-09T20:03:21.665Z,23.80
2019-05-09T20:06:03.178Z,23.27
2019-05-09T20:08:46.567Z,24.10
2019-05-09T20:11:33.276Z,22.95
2019-05-09T20:14:25.079Z,24.12
2019-05-09T20:17:14.670Z,22.27
2019-05-09T20:19:46.506Z,25.05
2019-05-09T20:22:27.955Z,25.00
2019-05-09T20:25:18.869Z,29.02
2019-05-09T20:27:53.771Z,27.10
2019-05-09T20:30:32.427Z,28.85
2019-05-09T20:33:04.039Z,25.02
2019-05-09T20:35:51.791Z,30.20
2019-05-09T20:38:23.610Z,26.90
2019-05-09T20:40:56.140Z,26.93
2019-05-09T20:43:28.579Z,25.48
2019-05-09T20:46:00.185Z,27.17
2019-05-09T20:48:32.786Z,31.77
2019-05-09T20:51:05.368Z,26.93
2019-05-09T20:53:37.816Z,28.47
2019-05-09T20:56:09.471Z,26.45
2019-05-09T20:58:44.333Z,29.10
2019-05-09T21:01:16.760Z,25.17
2019-05-09T21:03:59.808Z,28.23
2019-05-09T21:06:21.124Z,28.15
2019-05-09T21:08:55.734Z,32.13
2019-05-09T21:11:27.199Z,30.53
2019-05-09T21:13:59.035Z,27.67
2019-05-09T21:16:30.475Z,29.67
2019-05-09T21:19:03.228Z,29.70
2019-05-09T21:24:18.391Z,27.95
2019-05-09T21:26:50.147Z,30.75
2019-05-09T21:29:24.621Z,33.25
2019-05-09T21:31:56.423Z,29.97
2019-05-09T21:34:30.908Z,29.72
2019-05-09T21:37:03.562Z,27.90
2019-05-09T21:39:36.198Z,28.45
2019-05-09T21:42:10.598Z,28.32
2019-05-09T21:44:42.237Z,32.70
2019-05-09T21:47:14.209Z,29.30
2019-05-09T21:49:46.650Z,30.17
2019-05-09T21:52:19.223Z,30.00
2019-05-09T21:54:51.969Z,29.98
2019-05-09T21:57:23.506Z,32.60
2019-05-09T21:59:56.185Z,30.48
2019-05-09T22:02:28.110Z,29.75
2019-05-09T22:05:00.003Z,28.57
2019-05-09T22:07:33.401Z,24.37
2019-05-09T22:10:23.007Z,27.25
2019-05-09T22:12:55.541Z,29.07
2019-05-09T22:15:27.220Z,30.77
2019-05-09T22:17:59.848Z,32.53
2019-05-09T22:20:32.761Z,29.60
2019-05-09T22:23:06.948Z,29.40
2019-05-09T22:25:40.335Z,31.65
2019-05-09T22:28:12.994Z,31.40
2019-05-09T22:30:45.597Z,32.10
2019-05-09T22:33:20.124Z,32.98
2019-05-09T22:35:51.708Z,33.50
2019-05-09T22:38:27.354Z,28.87
2019-05-09T22:40:59.930Z,30.85
2019-05-09T22:43:32.468Z,30.68
2019-05-09T22:46:06.860Z,33.48
2019-05-09T22:48:39.355Z,32.25
2019-05-09T22:51:12.615Z,30.75
2019-05-09T22:53:45.251Z,31.07
2019-05-09T22:56:18.450Z,30.92
2019-05-09T22:58:53.157Z,27.13
2019-05-09T23:01:28.240Z,29.42
2019-05-09T23:04:02.849Z,27.62
2019-05-09T23:06:35.548Z,31.95
2019-05-09T23:09:09.126Z,32.65
2019-05-09T23:11:42.026Z,29.63
2019-05-09T23:14:14.890Z,31.12
2019-05-09T23:16:50.078Z,28.45
2019-05-09T23:19:20.416Z,30.32
2019-05-09T23:21:53.072Z,40.33
2019-05-09T23:24:28.414Z,37.67
2019-05-09T23:26:59.720Z,31.73
2019-05-09T23:29:33.896Z,31.05
2019-05-09T23:32:23.340Z,41.13
2019-05-09T23:35:01.592Z,45.63
2019-05-09T23:37:34.360Z,42.58
2019-05-09T23:40:10.521Z,35.70
2019-05-09T23:42:44.918Z,34.67
2019-05-09T23:45:17.365Z,36.88
2019-05-09T23:47:50.519Z,42.55
2019-05-09T23:50:25.170Z,43.23
2019-05-09T23:52:57.882Z,72.15
2019-05-09T23:55:47.558Z,91.67
2019-05-09T23:58:39.600Z,45.30
